createdAt,value
2022-09-24T00:01:36.499Z,98412.59
2022-09-24T00:04:06.133Z,98415.22
2022-09-24T00:06:44.453Z,98420.75
2022-09-24T00:09:13.271Z,98415.69
2022-09-24T00:11:46.431Z,98420.19
2022-09-24T00:14:14.085Z,98414.34
2022-09-24T00:16:41.333Z,98404.13
2022-09-24T00:19:08.250Z,98409.56
2022-09-24T00:21:36.747Z,98408.06
2022-09-24T00:24:07.384Z,98401.38
2022-09-24T00:26:49.679Z,98388.47
2022-09-24T00:29:22.986Z,98380.59
2022-09-24T00:31:55.023Z,98382.53
2022-09-24T00:34:21.822Z,98385.47
2022-09-24T00:36:48.557Z,98382.16
2022-09-24T00:39:15.850Z,98383.09
2022-09-24T00:41:49.026Z,98378.88
2022-09-24T00:44:38.771Z,98366.03
2022-09-24T00:47:05.886Z,98375.69
2022-09-24T00:49:32.711Z,98378.75
2022-09-24T00:51:59.333Z,98381.38
2022-09-24T00:54:28.635Z,98384.94
2022-09-24T00:56:57.475Z,98388.81
2022-09-24T00:59:27.792Z,98384.69
2022-09-24T01:01:57.695Z,98387.31
2022-09-24T01:04:27.086Z,98387.25
2022-09-24T01:06:54.457Z,98378.78
2022-09-24T01:09:24.307Z,98381.50
2022-09-24T01:12:22.149Z,98373.66
2022-09-24T01:15:03.957Z,98381.69
2022-09-24T01:18:03.029Z,98383.44
2022-09-24T01:21:19.979Z,98375.84
2022-09-24T01:24:23.171Z,98373.31
2022-09-24T01:27:04.286Z,98351.69
2022-09-24T01:29:53.393Z,98355.44
2022-09-24T01:32:32.194Z,98357.09
2022-09-24T01:35:31.537Z,98357.19
2022-09-24T01:38:04.635Z,98360.91
2022-09-24T01:40:31.882Z,98357.44
2022-09-24T01:43:00.255Z,98353.06
2022-09-24T01:45:32.502Z,98347.91
2022-09-24T01:48:00.852Z,98354.81
2022-09-24T01:50:33.687Z,98351.38
2022-09-24T01:53:08.910Z,98340.91
2022-09-24T01:55:42.153Z,98337.34
2022-09-24T01:58:14.492Z,98323.50
2022-09-24T02:00:46.765Z,98327.88
2022-09-24T02:03:21.525Z,98330.50
2022-09-24T02:05:59.410Z,98319.06
2022-09-24T02:08:36.668Z,98314.63
2022-09-24T02:11:08.224Z,98309.38
2022-09-24T02:13:51.210Z,98309.28
2022-09-24T02:16:27.002Z,98297.28
2022-09-24T02:19:00.427Z,98293.16
2022-09-24T02:21:33.063Z,98294.66
2022-09-24T02:24:11.311Z,98281.94
2022-09-24T02:26:40.379Z,98292.41
2022-09-24T02:29:07.441Z,98291.38
2022-09-24T02:31:42.993Z,98281.66
2022-09-24T02:34:27.687Z,98282.50
2022-09-24T02:37:09.590Z,98289.31
2022-09-24T02:39:36.432Z,98291.13
2022-09-24T02:42:07.721Z,98278.84
2022-09-24T02:44:41.449Z,98278.69
2022-09-24T02:47:11.118Z,98281.19
2022-09-24T02:49:37.674Z,98282.06
2022-09-24T02:52:04.788Z,98282.13
2022-09-24T02:54:31.797Z,98280.25
2022-09-24T02:56:58.654Z,98276.81
2022-09-24T02:59:25.243Z,98270.53
2022-09-24T03:01:52.030Z,98259.13
2022-09-24T03:04:18.718Z,98279.81
2022-09-24T03:06:45.310Z,98277.31
2022-09-24T03:09:12.987Z,98283.06
2022-09-24T03:11:40.176Z,98278.56
2022-09-24T03:14:06.946Z,98278.50
2022-09-24T03:16:33.869Z,98274.09
2022-09-24T03:19:00.542Z,98280.75
2022-09-24T03:21:27.294Z,98273.63
2022-09-24T03:23:53.895Z,98278.81
2022-09-24T03:26:20.810Z,98277.78
2022-09-24T03:28:58.698Z,98268.13
2022-09-24T03:31:25.554Z,98267.13
2022-09-24T03:33:52.580Z,98274.97
2022-09-24T03:36:22.782Z,98265.31
2022-09-24T03:38:56.308Z,98268.06
2022-09-24T03:41:27.668Z,98269.63
2022-09-24T03:43:55.639Z,98262.88
2022-09-24T03:46:24.432Z,98258.59
2022-09-24T03:48:51.131Z,98255.13
2022-09-24T03:51:24.493Z,98251.84
2022-09-24T03:53:51.145Z,98250.91
2022-09-24T03:56:17.697Z,98238.81
2022-09-24T03:58:47.465Z,98240.63
2022-09-24T04:01:21.554Z,98237.06
2022-09-24T04:03:49.657Z,98232.56
2022-09-24T04:06:17.293Z,98224.78
2022-09-24T04:08:46.199Z,98227.31
2022-09-24T04:11:12.749Z,98224.78
2022-09-24T04:13:39.240Z,98225.91
2022-09-24T04:16:06.121Z,98227.78
2022-09-24T04:18:39.034Z,98222.53
2022-09-24T04:21:11.096Z,98218.25
2022-09-24T04:23:37.666Z,98210.38
2022-09-24T04:26:04.408Z,98216.38
2022-09-24T04:28:31.534Z,98219.06
2022-09-24T04:30:58.739Z,98209.63
2022-09-24T04:33:25.578Z,98219.91
2022-09-24T04:35:52.240Z,98216.44
2022-09-24T04:38:20.379Z,98213.94
2022-09-24T04:40:49.003Z,98220.94
2022-09-24T04:43:15.724Z,98218.31
2022-09-24T04:45:45.019Z,98220.19
2022-09-24T04:48:12.207Z,98228.91
2022-09-24T04:50:44.994Z,98228.91
2022-09-24T04:53:12.529Z,98239.19
2022-09-24T04:55:39.510Z,98240.78
2022-09-24T04:58:06.060Z,98233.78
2022-09-24T05:00:34.068Z,98238.81
2022-09-24T05:03:05.723Z,98239.56
2022-09-24T05:05:34.038Z,98239.50
2022-09-24T05:08:01.498Z,98235.84
2022-09-24T05:10:29.951Z,98234.81
2022-09-24T05:12:56.532Z,98239.13
2022-09-24T05:15:30.609Z,98239.88
2022-09-24T05:17:57.489Z,98232.94
2022-09-24T05:20:24.374Z,98231.19
2022-09-24T05:22:51.359Z,98224.31
2022-09-24T05:25:20.580Z,98212.09
2022-09-24T05:27:48.984Z,98225.25
2022-09-24T05:30:16.247Z,98227.06
2022-09-24T05:32:43.240Z,98227.69
2022-09-24T05:35:13.732Z,98219.94
2022-09-24T05:37:41.145Z,98210.28
2022-09-24T05:40:33.858Z,98212.72
2022-09-24T05:43:04.442Z,98220.59
2022-09-24T05:45:31.882Z,98209.94
2022-09-24T05:48:00.267Z,98210.56
2022-09-24T05:50:34.928Z,98222.38
2022-09-24T05:53:02.682Z,98233.59
2022-09-24T05:55:32.430Z,98231.72
2022-09-24T05:58:04.334Z,98241.94
2022-09-24T06:00:33.575Z,98239.13
2022-09-24T06:03:10.598Z,98243.44
2022-09-24T06:05:37.210Z,98250.19
2022-09-24T06:08:05.353Z,98245.72
2022-09-24T06:10:32.679Z,98259.38
2022-09-24T06:12:59.307Z,98251.03
2022-09-24T06:15:27.222Z,98253.41
2022-09-24T06:17:57.529Z,98252.16
2022-09-24T06:20:29.408Z,98252.72
2022-09-24T06:22:59.142Z,98256.94
2022-09-24T06:25:29.327Z,98255.91
2022-09-24T06:28:01.681Z,98254.88
2022-09-24T06:30:30.359Z,98251.13
2022-09-24T06:33:05.818Z,98246.63
2022-09-24T06:35:40.923Z,98249.16
2022-09-24T06:38:11.196Z,98251.66
2022-09-24T06:40:41.668Z,98254.88
2022-09-24T06:43:10.836Z,98250.38
2022-09-24T06:45:37.707Z,98251.00
2022-09-24T06:48:06.124Z,98250.06
2022-09-24T06:50:34.894Z,98257.91
2022-09-24T06:53:05.428Z,98252.19
2022-09-24T06:55:32.044Z,98253.38
2022-09-24T06:58:04.365Z,98255.53
2022-09-24T07:00:34.890Z,98254.38
2022-09-24T07:03:01.969Z,98261.47
2022-09-24T07:05:28.599Z,98253.09
2022-09-24T07:07:55.252Z,98256.81
2022-09-24T07:10:23.405Z,98254.41
2022-09-24T07:12:50.253Z,98246.63
2022-09-24T07:15:17.078Z,98244.25
2022-09-24T07:17:43.635Z,98246.91
2022-09-24T07:20:10.240Z,98252.06
2022-09-24T07:22:42.283Z,98241.66
2022-09-24T07:25:12.610Z,98252.78
2022-09-24T07:27:39.474Z,98254.31
2022-09-24T07:30:08.978Z,98261.25
2022-09-24T07:32:36.143Z,98269.25
2022-09-24T07:35:02.757Z,98264.56
2022-09-24T07:37:32.647Z,98262.06
2022-09-24T07:39:59.523Z,98261.88
2022-09-24T07:42:26.234Z,98256.41
2022-09-24T07:44:53.149Z,98258.66
2022-09-24T07:47:19.725Z,98261.28
2022-09-24T07:49:46.320Z,98259.25
2022-09-24T07:52:13.197Z,98255.53
2022-09-24T07:54:39.826Z,98253.84
2022-09-24T07:57:12.950Z,98255.28
2022-09-24T07:59:40.688Z,98258.66
2022-09-24T08:02:15.643Z,98246.97
2022-09-24T08:04:42.229Z,98259.66
2022-09-24T08:07:08.864Z,98262.31
2022-09-24T08:09:35.651Z,98259.19
2022-09-24T08:12:02.242Z,98257.31
2022-09-24T08:14:29.128Z,98256.72
2022-09-24T08:16:55.734Z,98263.44
2022-09-24T08:19:22.345Z,98259.50
2022-09-24T08:21:48.986Z,98265.25
2022-09-24T08:24:16.047Z,98263.56
2022-09-24T08:26:42.743Z,98262.59
2022-09-24T08:29:09.382Z,98267.53
2022-09-24T08:31:36.101Z,98274.13
2022-09-24T08:34:02.864Z,98277.59
2022-09-24T08:36:29.634Z,98267.13
2022-09-24T08:38:56.446Z,98267.03
2022-09-24T08:41:35.491Z,98263.25
2022-09-24T08:44:49.991Z,98269.41
2022-09-24T08:47:30.969Z,98260.91
2022-09-24T08:50:10.064Z,98247.44
2022-09-24T08:52:42.734Z,98251.88
2022-09-24T08:55:32.918Z,98245.75
2022-09-24T08:58:17.886Z,98262.19
2022-09-24T09:00:58.871Z,98257.63
2022-09-24T09:03:36.685Z,98266.22
2022-09-24T09:06:14.683Z,98265.44
2022-09-24T09:09:06.956Z,98270.47
2022-09-24T09:11:37.063Z,98278.28
2022-09-24T09:14:29.257Z,98269.69
2022-09-24T09:17:23.343Z,98273.72
2022-09-24T09:19:56.689Z,98272.75
2022-09-24T09:22:28.914Z,98279.66
2022-09-24T09:25:04.147Z,98272.53
2022-09-24T09:27:31.470Z,98277.03
2022-09-24T09:30:03.090Z,98278.59
2022-09-24T09:32:49.380Z,98277.53
2022-09-24T09:35:55.047Z,98277.00
2022-09-24T09:38:53.618Z,98279.50
2022-09-24T09:41:20.197Z,98289.59
2022-09-24T09:43:46.895Z,98282.84
2022-09-24T09:46:29.177Z,98287.03
2022-09-24T09:49:05.492Z,98287.03
2022-09-24T09:51:38.534Z,98281.34
2022-09-24T09:54:05.484Z,98289.34
2022-09-24T09:56:56.295Z,98295.16
2022-09-24T09:59:31.512Z,98299.78
2022-09-24T10:01:58.442Z,98295.16
2022-09-24T10:04:34.611Z,98294.16
2022-09-24T10:07:12.996Z,98295.44
2022-09-24T10:09:40.880Z,98295.63
2022-09-24T10:12:22.386Z,98297.75
2022-09-24T10:15:12.337Z,98292.63
2022-09-24T10:17:40.187Z,98293.34
2022-09-24T10:20:24.241Z,98292.94
2022-09-24T10:22:53.590Z,98290.97
2022-09-24T10:25:26.401Z,98294.59
2022-09-24T10:28:16.144Z,98294.44
2022-09-24T10:30:56.861Z,98283.00
2022-09-24T10:33:24.152Z,98286.63
2022-09-24T10:35:51.428Z,98276.66
2022-09-24T10:38:20.530Z,98283.34
2022-09-24T10:40:48.078Z,98281.53
2022-09-24T10:43:20.549Z,98281.00
2022-09-24T10:45:53.142Z,98284.88
2022-09-24T10:48:39.853Z,98283.06
2022-09-24T10:51:31.651Z,98286.09
2022-09-24T10:54:23.624Z,98280.22
2022-09-24T10:56:55.756Z,98288.47
2022-09-24T10:59:43.387Z,98276.81
2022-09-24T11:02:42.070Z,98279.34
2022-09-24T11:05:16.008Z,98269.09
2022-09-24T11:08:12.554Z,98280.22
2022-09-24T11:11:16.917Z,98274.81
2022-09-24T11:14:01.822Z,98274.63
2022-09-24T11:16:39.055Z,98272.25
2022-09-24T11:19:29.009Z,98266.16
2022-09-24T11:22:24.908Z,98271.09
2022-09-24T11:25:06.580Z,98268.56
2022-09-24T11:27:39.174Z,98268.16
2022-09-24T11:30:27.298Z,98271.00
2022-09-24T11:33:22.747Z,98264.69
2022-09-24T11:36:19.389Z,98266.00
2022-09-24T11:39:17.752Z,98270.41
2022-09-24T11:42:21.874Z,98262.44
2022-09-24T11:45:16.692Z,98265.34
2022-09-24T11:48:07.745Z,98258.91
2022-09-24T11:50:58.514Z,98256.59
2022-09-24T11:53:46.629Z,98252.47
2022-09-24T11:56:43.145Z,98247.22
2022-09-24T11:59:18.611Z,98248.78
2022-09-24T12:01:53.336Z,98243.97
2022-09-24T12:04:28.034Z,98240.75
2022-09-24T12:07:18.212Z,98241.63
2022-09-24T12:10:25.094Z,98242.94
2022-09-24T12:12:57.343Z,98234.88
2022-09-24T12:15:27.821Z,98229.84
2022-09-24T12:18:12.211Z,98235.34
2022-09-24T12:20:50.299Z,98227.03
2022-09-24T12:23:21.260Z,98230.22
2022-09-24T12:25:49.412Z,98234.69
2022-09-24T12:28:38.551Z,98224.19
2022-09-24T12:31:38.476Z,98239.59
2022-09-24T12:34:15.164Z,98230.91
2022-09-24T12:37:05.596Z,98240.13
2022-09-24T12:39:43.521Z,98234.66
2022-09-24T12:42:13.609Z,98234.47
2022-09-24T12:44:51.658Z,98232.25
2022-09-24T12:47:26.838Z,98235.41
2022-09-24T12:50:02.323Z,98227.13
2022-09-24T12:52:38.135Z,98238.25
2022-09-24T12:55:05.787Z,98224.66
2022-09-24T12:57:39.891Z,98230.28
2022-09-24T13:00:32.753Z,98224.47
2022-09-24T13:03:00.649Z,98228.19
2022-09-24T13:05:33.509Z,98228.00
2022-09-24T13:08:20.074Z,98219.88
2022-09-24T13:10:59.760Z,98223.13
2022-09-24T13:13:33.186Z,98218.94
2022-09-24T13:16:06.287Z,98217.53
2022-09-24T13:18:37.356Z,98211.72
2022-09-24T13:21:09.107Z,98222.59
2022-09-24T13:23:35.710Z,98228.81
2022-09-24T13:26:05.510Z,98220.13
2022-09-24T13:28:58.423Z,98221.13
2022-09-24T13:31:28.145Z,98218.53
2022-09-24T13:34:12.719Z,98223.13
2022-09-24T13:36:57.869Z,98220.97
2022-09-24T13:39:45.971Z,98227.22
2022-09-24T13:42:45.272Z,98226.59
2022-09-24T13:45:18.763Z,98223.22
2022-09-24T13:47:52.236Z,98223.03
2022-09-24T13:50:24.341Z,98219.69
2022-09-24T13:53:06.435Z,98225.59
2022-09-24T13:55:45.109Z,98235.91
2022-09-24T13:58:34.691Z,98227.56
2022-09-24T14:01:16.493Z,98223.84
2022-09-24T14:03:55.978Z,98229.91
2022-09-24T14:06:38.015Z,98225.03
2022-09-24T14:09:27.419Z,98225.31
2022-09-24T14:11:58.098Z,98227.72
2022-09-24T14:14:27.945Z,98228.75
2022-09-24T14:17:05.463Z,98220.38
2022-09-24T14:19:34.615Z,98217.63
2022-09-24T14:22:03.594Z,98213.44
2022-09-24T14:24:53.011Z,98220.84
2022-09-24T14:27:22.306Z,98223.09
2022-09-24T14:30:02.514Z,98216.00
2022-09-24T14:32:39.351Z,98219.25
2022-09-24T14:35:21.314Z,98225.28
2022-09-24T14:37:55.363Z,98231.28
2022-09-24T14:40:23.273Z,98233.41
2022-09-24T14:42:54.765Z,98225.59
2022-09-24T14:45:25.463Z,98225.75
2022-09-24T14:48:19.372Z,98231.75
2022-09-24T14:50:46.807Z,98225.91
2022-09-24T14:53:26.987Z,98231.34
2022-09-24T14:55:53.732Z,98224.63
2022-09-24T14:58:29.879Z,98230.78
2022-09-24T15:01:02.519Z,98235.53
2022-09-24T15:03:49.673Z,98228.00
2022-09-24T15:06:25.702Z,98228.41
2022-09-24T15:09:00.797Z,98226.47
2022-09-24T15:11:34.514Z,98227.56
2022-09-24T15:14:16.242Z,98223.25
2022-09-24T15:16:44.665Z,98220.31
2022-09-24T15:19:17.000Z,98221.84
2022-09-24T15:21:45.196Z,98219.75
2022-09-24T15:24:12.100Z,98220.59
2022-09-24T15:26:42.066Z,98219.44
2022-09-24T15:29:23.972Z,98214.69
2022-09-24T15:31:51.506Z,98219.84
2022-09-24T15:34:20.161Z,98212.47
2022-09-24T15:36:54.057Z,98223.75
2022-09-24T15:39:21.539Z,98215.38
2022-09-24T15:41:48.097Z,98215.22
2022-09-24T15:44:23.102Z,98212.59
2022-09-24T15:46:51.499Z,98215.19
2022-09-24T15:49:22.809Z,98217.72
2022-09-24T15:51:56.067Z,98208.34
2022-09-24T15:54:24.700Z,98200.97
2022-09-24T15:56:54.422Z,98205.16
2022-09-24T15:59:23.935Z,98207.63
2022-09-24T16:01:54.767Z,98204.41
2022-09-24T16:04:21.458Z,98209.31
2022-09-24T16:06:48.132Z,98202.50
2022-09-24T16:09:14.859Z,98200.66
2022-09-24T16:11:41.472Z,98206.22
2022-09-24T16:14:09.282Z,98201.91
2022-09-24T16:16:38.594Z,98204.69
2022-09-24T16:19:07.360Z,98205.38
2022-09-24T16:21:34.193Z,98209.00
2022-09-24T16:24:01.326Z,98207.34
2022-09-24T16:26:31.127Z,98210.13
2022-09-24T16:28:58.061Z,98212.63
2022-09-24T16:31:24.681Z,98218.19
2022-09-24T16:33:51.291Z,98223.91
2022-09-24T16:36:18.471Z,98218.06
2022-09-24T16:38:53.962Z,98223.34
2022-09-24T16:41:20.655Z,98232.50
2022-09-24T16:43:47.215Z,98229.16
2022-09-24T16:46:18.038Z,98236.28
2022-09-24T16:48:49.366Z,98239.31
2022-09-24T16:51:17.273Z,98236.78
2022-09-24T16:53:48.420Z,98229.81
2022-09-24T16:56:17.652Z,98229.13
2022-09-24T16:58:46.015Z,98228.28
2022-09-24T17:01:15.138Z,98227.44
2022-09-24T17:03:42.378Z,98230.09
2022-09-24T17:06:16.982Z,98231.34
2022-09-24T17:09:02.065Z,98230.75
2022-09-24T17:11:29.462Z,98233.78
2022-09-24T17:13:57.206Z,98234.06
2022-09-24T17:16:25.312Z,98238.91
2022-09-24T17:18:54.502Z,98234.28
2022-09-24T17:21:22.225Z,98239.25
2022-09-24T17:23:49.396Z,98240.47
2022-09-24T17:26:19.113Z,98246.16
2022-09-24T17:28:48.770Z,98241.09
2022-09-24T17:31:17.603Z,98245.53
2022-09-24T17:33:44.669Z,98249.84
2022-09-24T17:36:14.178Z,98247.47
2022-09-24T17:38:40.898Z,98245.78
2022-09-24T17:41:10.940Z,98239.81
2022-09-24T17:43:38.444Z,98247.03
2022-09-24T17:46:13.806Z,98249.09
2022-09-24T17:48:44.644Z,98251.88
2022-09-24T17:51:20.373Z,98255.00
2022-09-24T17:53:47.328Z,98251.22
2022-09-24T17:56:14.711Z,98254.13
2022-09-24T17:58:47.065Z,98256.06
2022-09-24T18:01:18.022Z,98258.56
2022-09-24T18:03:45.910Z,98259.78
2022-09-24T18:06:14.887Z,98259.31
2022-09-24T18:08:46.075Z,98269.91
2022-09-24T18:11:20.907Z,98264.84
2022-09-24T18:13:55.733Z,98272.06
2022-09-24T18:16:24.838Z,98268.00
2022-09-24T18:18:51.517Z,98268.00
2022-09-24T18:21:20.939Z,98259.22
2022-09-24T18:23:48.098Z,98270.75
2022-09-24T18:26:26.657Z,98269.22
2022-09-24T18:28:59.342Z,98270.19
2022-09-24T18:31:28.169Z,98265.16
2022-09-24T18:33:57.133Z,98272.25
2022-09-24T18:36:25.869Z,98268.03
2022-09-24T18:38:53.873Z,98264.69
2022-09-24T18:41:22.881Z,98267.31
2022-09-24T18:43:50.299Z,98272.84
2022-09-24T18:46:18.789Z,98272.16
2022-09-24T18:48:48.498Z,98269.63
2022-09-24T18:51:20.189Z,98275.03
2022-09-24T18:53:59.075Z,98269.88
2022-09-24T18:56:27.031Z,98277.19
2022-09-24T18:58:56.641Z,98273.84
2022-09-24T19:01:23.548Z,98278.41
2022-09-24T19:03:50.415Z,98278.66
2022-09-24T19:06:17.363Z,98277.25
2022-09-24T19:08:43.954Z,98284.44
2022-09-24T19:11:13.853Z,98283.72
2022-09-24T19:13:42.774Z,98280.25
2022-09-24T19:16:12.522Z,98288.66
2022-09-24T19:18:40.518Z,98290.34
2022-09-24T19:21:09.705Z,98280.03
2022-09-24T19:23:50.603Z,98286.25
2022-09-24T19:26:25.716Z,98292.38
2022-09-24T19:28:53.125Z,98292.63
2022-09-24T19:31:31.771Z,98293.59
2022-09-24T19:34:04.383Z,98296.34
2022-09-24T19:36:36.258Z,98294.78
2022-09-24T19:39:05.532Z,98289.72
2022-09-24T19:41:32.156Z,98297.78
2022-09-24T19:44:08.201Z,98297.09
2022-09-24T19:46:35.649Z,98291.06
2022-09-24T19:49:04.820Z,98292.75
2022-09-24T19:51:33.246Z,98286.72
2022-09-24T19:54:04.952Z,98295.63
2022-09-24T19:56:32.103Z,98300.06
2022-09-24T19:59:02.175Z,98296.72
2022-09-24T20:01:30.809Z,98290.72
2022-09-24T20:04:00.369Z,98290.72
2022-09-24T20:06:31.356Z,98290.81
2022-09-24T20:08:59.334Z,98292.50
2022-09-24T20:11:26.516Z,98289.97
2022-09-24T20:13:55.406Z,98297.19
2022-09-24T20:16:27.392Z,98294.69
2022-09-24T20:19:05.278Z,98296.72
2022-09-24T20:21:36.890Z,98296.81
2022-09-24T20:24:05.647Z,98295.47
2022-09-24T20:26:51.793Z,98299.19
2022-09-24T20:29:22.881Z,98299.19
2022-09-24T20:31:52.682Z,98300.41
2022-09-24T20:34:25.025Z,98303.13
2022-09-24T20:37:00.370Z,98300.63
2022-09-24T20:39:28.120Z,98307.69
2022-09-24T20:41:55.709Z,98302.66
2022-09-24T20:44:24.794Z,98307.22
2022-09-24T20:46:54.344Z,98297.63
2022-09-24T20:49:23.027Z,98298.59
2022-09-24T20:51:57.444Z,98303.13
2022-09-24T20:54:25.729Z,98310.19
2022-09-24T20:56:55.973Z,98303.25
2022-09-24T20:59:22.988Z,98303.34
2022-09-24T21:01:49.838Z,98297.34
2022-09-24T21:04:17.361Z,98294.84
2022-09-24T21:06:43.929Z,98293.38
2022-09-24T21:09:10.515Z,98289.91
2022-09-24T21:11:37.818Z,98288.34
2022-09-24T21:14:04.431Z,98294.59
2022-09-24T21:16:37.928Z,98288.69
2022-09-24T21:19:07.862Z,98280.78
2022-09-24T21:21:38.858Z,98285.31
2022-09-24T21:24:07.688Z,98294.09
2022-09-24T21:26:37.693Z,98288.09
2022-09-24T21:29:09.141Z,98301.41
2022-09-24T21:31:37.533Z,98295.41
2022-09-24T21:34:06.785Z,98307.16
2022-09-24T21:36:42.920Z,98302.81
2022-09-24T21:39:17.429Z,98296.69
2022-09-24T21:41:45.912Z,98301.00
2022-09-24T21:44:17.682Z,98303.78
2022-09-24T21:46:45.227Z,98303.78
2022-09-24T21:49:14.808Z,98303.88
2022-09-24T21:51:41.972Z,98303.88
2022-09-24T21:54:13.185Z,98307.47
2022-09-24T21:56:40.292Z,98299.81
2022-09-24T21:59:25.472Z,98302.44
2022-09-24T22:01:52.483Z,98303.28
2022-09-24T22:04:19.516Z,98301.81
2022-09-24T22:06:48.339Z,98305.41
2022-09-24T22:09:15.874Z,98300.25
2022-09-24T22:11:43.816Z,98304.69
2022-09-24T22:14:12.125Z,98309.13
2022-09-24T22:16:39.032Z,98309.25
2022-09-24T22:19:07.209Z,98306.47
2022-09-24T22:21:34.375Z,98304.78
2022-09-24T22:24:01.240Z,98304.22
2022-09-24T22:26:29.644Z,98306.09
2022-09-24T22:28:57.086Z,98301.66
2022-09-24T22:31:23.780Z,98303.59
2022-09-24T22:34:09.201Z,98294.97
2022-09-24T22:36:36.148Z,98301.06
2022-09-24T22:39:04.773Z,98302.00
2022-09-24T22:41:32.639Z,98303.81
2022-09-24T22:43:59.380Z,98300.56
2022-09-24T22:46:27.358Z,98298.16
2022-09-24T22:48:57.445Z,98303.44
2022-09-24T22:51:26.875Z,98305.09
2022-09-24T22:53:54.473Z,98298.25
2022-09-24T22:56:23.910Z,98301.84
2022-09-24T22:58:56.527Z,98299.34
2022-09-24T23:01:26.694Z,98300.28
2022-09-24T23:03:55.349Z,98292.38
2022-09-24T23:06:22.760Z,98293.44
2022-09-24T23:08:49.803Z,98300.50
2022-09-24T23:11:18.949Z,98296.31
2022-09-24T23:13:46.800Z,98292.81
2022-09-24T23:16:19.224Z,98286.94
2022-09-24T23:18:57.429Z,98291.16
2022-09-24T23:21:26.052Z,98285.06
2022-09-24T23:23:57.321Z,98298.31
2022-09-24T23:26:25.314Z,98286.94
2022-09-24T23:28:53.267Z,98288.84
2022-09-24T23:31:27.351Z,98290.66
2022-09-24T23:33:55.781Z,98286.22
2022-09-24T23:36:23.197Z,98292.34
2022-09-24T23:38:50.450Z,98292.34
2022-09-24T23:41:17.403Z,98292.34
2022-09-24T23:43:44.164Z,98295.94
2022-09-24T23:46:11.298Z,98298.66
2022-09-24T23:48:38.217Z,98292.75
2022-09-24T23:51:06.053Z,98297.31
2022-09-24T23:53:34.224Z,98297.22
2022-09-24T23:56:02.387Z,98300.81
2022-09-24T23:58:29.218Z,98294.66
